Terminal Aerodrome Forecast
Issued by NWS Cleveland, OH

Home | Current Version | Previous Version | Graphics & Text | Print | Product List | Glossary On
Versions: 1 2 3 4 5 6 7 8 9 10 11 12 13
000
FTUS41 KCLE 211419 AAA
TAFTOL
TAF AMD
KTOL 211419Z 2114/2212 29012G18KT P6SM OVC035
      TEMPO 2115/2119 OVC030
     FM220000 32008KT P6SM BKN035=

USA.gov is the U.S. government's official web portal to all federal, state and local government web resources and services.